CYED/YED METAR and TAF weather

Enter ICAO airport designator
Station Type Date Time Source
CYED METAR 2020/07/09 23:00 UTC NOAA

CYED 092300Z AUTO 15010KT 9SM FEW046 FEW054 FEW060 FEW067 21/13 A2983 RMK SLP106


Station Type Date Time Source
CYED Decoded METAR 2020/07/09 23:00 UTC NOAA

Edmonton Namao Alta., Canada (CYED) 53-40N 113-28W 688M
Jul 09, 2020 - 07:00 PM EDT / 2020.07.09 2300 UTC
Wind: from the SSE (150 degrees) at 12 MPH (10 KT):0
Visibility: 9 mile(s):0
Sky conditions: mostly clear
Temperature: 69 F (21 C)
Dew Point: 55 F (13 C)
Relative Humidity: 60%
Pressure (altimeter): 29.83 in. Hg (1010 hPa)
ob: CYED 092300Z AUTO 15010KT 9SM FEW046 FEW054 FEW060 FEW067 21/13 A2983 RMK SLP106
cycle: 23

Station Type Date Time Source
CYED TAF 2020/07/09 18:33 UTC NOAA

TAF TAF CYED 091730Z 0918/1006 20005KT P6SM FEW025
FM092100 16010KT P6SM BKN050
TEMPO 0921/1006 4SM -SHRA BR PROB30 0922/1004 VRB15G25KT 2SM TSRA BR OVC040CB
RMK FCST BASED ON AUTO OBS. NXT FCST BY 100000Z

Example: see airport list